sensor_id;sensor_type;location;lat;lon;timestamp;P1;durP1;ratioP1;P2;durP2;ratioP2
58496;SDS011;44284;51.310;16.904;2022-11-25T00:01:18;134.65;;;58.63;;
58496;SDS011;44284;51.310;16.904;2022-11-25T00:03:45;152.43;;;60.95;;
58496;SDS011;44284;51.310;16.904;2022-11-25T00:06:18;191.48;;;71.03;;
58496;SDS011;44284;51.310;16.904;2022-11-25T00:08:45;196.23;;;72.43;;
58496;SDS011;44284;51.310;16.904;2022-11-25T00:11:12;190.57;;;71.25;;
58496;SDS011;44284;51.310;16.904;2022-11-25T00:13:39;177.50;;;64.88;;
58496;SDS011;44284;51.310;16.904;2022-11-25T00:16:06;174.10;;;66.22;;
58496;SDS011;44284;51.310;16.904;2022-11-25T00:18:33;158.27;;;61.78;;
58496;SDS011;44284;51.310;16.904;2022-11-25T00:21:04;172.77;;;58.05;;
58496;SDS011;44284;51.310;16.904;2022-11-25T00:23:30;165.75;;;58.58;;
58496;SDS011;44284;51.310;16.904;2022-11-25T00:25:56;178.63;;;61.85;;
58496;SDS011;44284;51.310;16.904;2022-11-25T00:28:22;188.57;;;61.72;;
58496;SDS011;44284;51.310;16.904;2022-11-25T00:30:48;139.80;;;52.90;;
58496;SDS011;44284;51.310;16.904;2022-11-25T00:33:14;176.50;;;56.35;;
58496;SDS011;44284;51.310;16.904;2022-11-25T00:35:42;155.70;;;54.97;;
58496;SDS011;44284;51.310;16.904;2022-11-25T00:38:08;179.32;;;59.28;;
58496;SDS011;44284;51.310;16.904;2022-11-25T00:40:34;155.82;;;53.63;;
58496;SDS011;44284;51.310;16.904;2022-11-25T00:43:00;160.93;;;54.88;;
58496;SDS011;44284;51.310;16.904;2022-11-25T00:45:45;164.02;;;56.88;;
58496;SDS011;44284;51.310;16.904;2022-11-25T00:48:11;183.70;;;58.17;;
58496;SDS011;44284;51.310;16.904;2022-11-25T00:50:37;165.57;;;55.75;;
58496;SDS011;44284;51.310;16.904;2022-11-25T00:53:03;157.23;;;51.88;;
58496;SDS011;44284;51.310;16.904;2022-11-25T00:55:29;152.18;;;53.17;;
58496;SDS011;44284;51.310;16.904;2022-11-25T00:58:15;148.13;;;50.60;;
58496;SDS011;44284;51.310;16.904;2022-11-25T01:00:41;153.60;;;49.97;;
58496;SDS011;44284;51.310;16.904;2022-11-25T01:03:07;144.45;;;50.83;;
58496;SDS011;44284;51.310;16.904;2022-11-25T01:05:33;234.80;;;64.30;;
58496;SDS011;44284;51.310;16.904;2022-11-25T01:07:59;202.10;;;68.00;;
58496;SDS011;44284;51.310;16.904;2022-11-25T01:10:25;201.98;;;68.60;;
58496;SDS011;44284;51.310;16.904;2022-11-25T01:12:51;168.20;;;59.60;;
58496;SDS011;44284;51.310;16.904;2022-11-25T01:15:17;182.55;;;58.03;;
58496;SDS011;44284;51.310;16.904;2022-11-25T01:17:43;171.73;;;61.13;;
58496;SDS011;44284;51.310;16.904;2022-11-25T01:20:09;201.27;;;67.47;;
58496;SDS011;44284;51.310;16.904;2022-11-25T01:22:35;170.95;;;56.40;;
58496;SDS011;44284;51.310;16.904;2022-11-25T01:25:01;158.10;;;52.42;;
58496;SDS011;44284;51.310;16.904;2022-11-25T01:27:27;167.30;;;54.70;;
58496;SDS011;44284;51.310;16.904;2022-11-25T01:29:53;170.20;;;52.35;;
58496;SDS011;44284;51.310;16.904;2022-11-25T01:32:19;164.45;;;48.88;;
58496;SDS011;44284;51.310;16.904;2022-11-25T01:34:45;213.10;;;45.72;;
58496;SDS011;44284;51.310;16.904;2022-11-25T01:37:11;134.85;;;42.50;;
58496;SDS011;44284;51.310;16.904;2022-11-25T01:39:37;133.80;;;44.45;;
58496;SDS011;44284;51.310;16.904;2022-11-25T01:42:03;133.35;;;43.63;;
58496;SDS011;44284;51.310;16.904;2022-11-25T01:44:30;139.95;;;44.20;;
58496;SDS011;44284;51.310;16.904;2022-11-25T01:49:31;151.75;;;47.15;;
58496;SDS011;44284;51.310;16.904;2022-11-25T01:54:28;135.05;;;46.05;;
58496;SDS011;44284;51.310;16.904;2022-11-25T01:56:57;137.10;;;45.50;;
58496;SDS011;44284;51.310;16.904;2022-11-25T01:59:25;171.57;;;49.85;;
58496;SDS011;44284;51.310;16.904;2022-11-25T02:01:51;150.98;;;49.30;;
58496;SDS011;44284;51.310;16.904;2022-11-25T02:04:17;166.05;;;49.75;;
58496;SDS011;44284;51.310;16.904;2022-11-25T02:06:48;152.57;;;48.42;;
58496;SDS011;44284;51.310;16.904;2022-11-25T02:09:15;143.30;;;47.33;;
58496;SDS011;44284;51.310;16.904;2022-11-25T02:11:43;144.68;;;46.17;;
58496;SDS011;44284;51.310;16.904;2022-11-25T02:14:11;149.13;;;46.35;;
58496;SDS011;44284;51.310;16.904;2022-11-25T02:16:38;146.05;;;50.08;;
58496;SDS011;44284;51.310;16.904;2022-11-25T02:19:05;178.13;;;54.00;;
58496;SDS011;44284;51.310;16.904;2022-11-25T02:21:39;168.13;;;54.03;;
58496;SDS011;44284;51.310;16.904;2022-11-25T02:26:33;187.18;;;52.50;;
58496;SDS011;44284;51.310;16.904;2022-11-25T02:28:59;195.23;;;53.97;;
58496;SDS011;44284;51.310;16.904;2022-11-25T02:31:25;172.20;;;51.38;;
58496;SDS011;44284;51.310;16.904;2022-11-25T02:33:51;147.80;;;48.75;;
58496;SDS011;44284;51.310;16.904;2022-11-25T02:36:19;187.25;;;46.95;;
58496;SDS011;44284;51.310;16.904;2022-11-25T02:43:40;147.98;;;42.97;;
58496;SDS011;44284;51.310;16.904;2022-11-25T02:46:07;198.45;;;45.40;;
58496;SDS011;44284;51.310;16.904;2022-11-25T02:48:35;133.77;;;41.65;;
58496;SDS011;44284;51.310;16.904;2022-11-25T02:51:02;113.57;;;36.78;;
58496;SDS011;44284;51.310;16.904;2022-11-25T02:53:28;100.82;;;37.53;;
58496;SDS011;44284;51.310;16.904;2022-11-25T02:55:54;161.85;;;39.58;;
58496;SDS011;44284;51.310;16.904;2022-11-25T02:58:20;113.05;;;34.72;;
58496;SDS011;44284;51.310;16.904;2022-11-25T03:00:47;118.10;;;35.75;;
58496;SDS011;44284;51.310;16.904;2022-11-25T03:03:13;135.25;;;35.05;;
58496;SDS011;44284;51.310;16.904;2022-11-25T03:05:39;143.48;;;35.50;;
58496;SDS011;44284;51.310;16.904;2022-11-25T03:08:06;131.40;;;34.03;;
58496;SDS011;44284;51.310;16.904;2022-11-25T03:10:32;182.13;;;37.08;;
58496;SDS011;44284;51.310;16.904;2022-11-25T03:12:58;110.43;;;34.90;;
58496;SDS011;44284;51.310;16.904;2022-11-25T03:15:25;156.30;;;41.80;;
58496;SDS011;44284;51.310;16.904;2022-11-25T03:17:51;119.80;;;40.63;;
58496;SDS011;44284;51.310;16.904;2022-11-25T03:20:17;167.30;;;43.55;;
58496;SDS011;44284;51.310;16.904;2022-11-25T03:22:44;121.88;;;41.42;;
58496;SDS011;44284;51.310;16.904;2022-11-25T03:25:11;147.18;;;41.70;;
58496;SDS011;44284;51.310;16.904;2022-11-25T03:27:37;170.88;;;44.17;;
58496;SDS011;44284;51.310;16.904;2022-11-25T03:30:04;133.32;;;42.38;;
58496;SDS011;44284;51.310;16.904;2022-11-25T03:32:31;191.25;;;46.20;;
58496;SDS011;44284;51.310;16.904;2022-11-25T03:34:57;185.75;;;45.17;;
58496;SDS011;44284;51.310;16.904;2022-11-25T03:37:23;166.15;;;47.42;;
58496;SDS011;44284;51.310;16.904;2022-11-25T03:39:49;217.98;;;51.00;;
58496;SDS011;44284;51.310;16.904;2022-11-25T03:42:15;275.60;;;53.78;;
58496;SDS011;44284;51.310;16.904;2022-11-25T03:44:41;192.95;;;48.30;;
58496;SDS011;44284;51.310;16.904;2022-11-25T03:47:07;149.95;;;46.45;;
58496;SDS011;44284;51.310;16.904;2022-11-25T03:49:33;170.02;;;48.78;;
58496;SDS011;44284;51.310;16.904;2022-11-25T03:51:59;197.07;;;47.85;;
58496;SDS011;44284;51.310;16.904;2022-11-25T03:54:25;230.32;;;48.75;;
58496;SDS011;44284;51.310;16.904;2022-11-25T03:56:51;156.40;;;45.17;;
58496;SDS011;44284;51.310;16.904;2022-11-25T03:59:17;193.15;;;46.47;;
58496;SDS011;44284;51.310;16.904;2022-11-25T04:01:43;176.63;;;44.33;;
58496;SDS011;44284;51.310;16.904;2022-11-25T04:04:09;159.05;;;42.35;;
58496;SDS011;44284;51.310;16.904;2022-11-25T04:06:35;172.20;;;43.80;;
58496;SDS011;44284;51.310;16.904;2022-11-25T04:09:03;180.93;;;44.38;;
58496;SDS011;44284;51.310;16.904;2022-11-25T04:11:29;149.32;;;43.65;;
58496;SDS011;44284;51.310;16.904;2022-11-25T04:14:14;154.95;;;43.58;;
58496;SDS011;44284;51.310;16.904;2022-11-25T04:16:40;181.02;;;44.53;;
58496;SDS011;44284;51.310;16.904;2022-11-25T04:19:07;220.25;;;46.90;;
58496;SDS011;44284;51.310;16.904;2022-11-25T04:21:33;214.18;;;45.47;;
58496;SDS011;44284;51.310;16.904;2022-11-25T04:23:59;190.88;;;46.03;;
58496;SDS011;44284;51.310;16.904;2022-11-25T04:26:25;171.10;;;43.30;;
58496;SDS011;44284;51.310;16.904;2022-11-25T04:28:52;193.50;;;43.72;;
58496;SDS011;44284;51.310;16.904;2022-11-25T04:31:18;153.27;;;44.20;;
58496;SDS011;44284;51.310;16.904;2022-11-25T04:33:44;147.25;;;41.50;;
58496;SDS011;44284;51.310;16.904;2022-11-25T04:36:10;136.65;;;41.13;;
58496;SDS011;44284;51.310;16.904;2022-11-25T04:38:36;154.60;;;42.28;;
58496;SDS011;44284;51.310;16.904;2022-11-25T04:41:02;192.98;;;43.70;;
58496;SDS011;44284;51.310;16.904;2022-11-25T04:43:28;204.63;;;44.50;;
58496;SDS011;44284;51.310;16.904;2022-11-25T04:45:54;160.07;;;43.83;;
58496;SDS011;44284;51.310;16.904;2022-11-25T04:48:20;211.05;;;44.58;;
58496;SDS011;44284;51.310;16.904;2022-11-25T04:50:46;129.32;;;39.22;;
58496;SDS011;44284;51.310;16.904;2022-11-25T04:53:13;155.85;;;43.10;;
58496;SDS011;44284;51.310;16.904;2022-11-25T04:55:39;133.15;;;40.13;;
58496;SDS011;44284;51.310;16.904;2022-11-25T04:58:05;138.82;;;41.08;;
58496;SDS011;44284;51.310;16.904;2022-11-25T05:00:31;178.52;;;42.22;;
58496;SDS011;44284;51.310;16.904;2022-11-25T05:02:57;224.60;;;43.63;;
58496;SDS011;44284;51.310;16.904;2022-11-25T05:05:23;223.05;;;45.55;;
58496;SDS011;44284;51.310;16.904;2022-11-25T05:07:49;221.25;;;41.88;;
58496;SDS011;44284;51.310;16.904;2022-11-25T05:10:15;156.68;;;40.65;;
58496;SDS011;44284;51.310;16.904;2022-11-25T05:12:41;165.38;;;39.42;;
58496;SDS011;44284;51.310;16.904;2022-11-25T05:15:07;147.93;;;40.05;;
58496;SDS011;44284;51.310;16.904;2022-11-25T05:17:33;191.48;;;43.08;;
58496;SDS011;44284;51.310;16.904;2022-11-25T05:19:59;122.00;;;40.97;;
58496;SDS011;44284;51.310;16.904;2022-11-25T05:22:27;203.15;;;46.45;;
58496;SDS011;44284;51.310;16.904;2022-11-25T05:24:54;184.13;;;46.58;;
58496;SDS011;44284;51.310;16.904;2022-11-25T05:27:20;231.20;;;45.60;;
58496;SDS011;44284;51.310;16.904;2022-11-25T05:29:46;212.38;;;46.47;;
58496;SDS011;44284;51.310;16.904;2022-11-25T05:32:13;197.18;;;46.60;;
58496;SDS011;44284;51.310;16.904;2022-11-25T05:34:39;246.05;;;47.60;;
58496;SDS011;44284;51.310;16.904;2022-11-25T05:37:05;248.60;;;52.08;;
58496;SDS011;44284;51.310;16.904;2022-11-25T05:39:32;199.30;;;46.58;;
58496;SDS011;44284;51.310;16.904;2022-11-25T05:41:58;153.07;;;45.17;;
58496;SDS011;44284;51.310;16.904;2022-11-25T05:44:24;220.98;;;47.28;;
58496;SDS011;44284;51.310;16.904;2022-11-25T05:46:50;194.65;;;48.90;;
58496;SDS011;44284;51.310;16.904;2022-11-25T05:49:17;238.73;;;51.05;;
58496;SDS011;44284;51.310;16.904;2022-11-25T05:51:43;215.70;;;51.13;;
58496;SDS011;44284;51.310;16.904;2022-11-25T05:54:09;253.63;;;55.13;;
58496;SDS011;44284;51.310;16.904;2022-11-25T05:56:35;194.20;;;51.60;;
58496;SDS011;44284;51.310;16.904;2022-11-25T05:59:01;248.85;;;55.33;;
58496;SDS011;44284;51.310;16.904;2022-11-25T06:01:28;277.85;;;58.75;;
58496;SDS011;44284;51.310;16.904;2022-11-25T06:03:54;290.42;;;57.72;;
58496;SDS011;44284;51.310;16.904;2022-11-25T06:06:20;263.10;;;52.78;;
58496;SDS011;44284;51.310;16.904;2022-11-25T06:08:46;231.45;;;51.58;;
58496;SDS011;44284;51.310;16.904;2022-11-25T06:11:15;223.07;;;53.38;;
58496;SDS011;44284;51.310;16.904;2022-11-25T06:13:42;317.42;;;54.88;;
58496;SDS011;44284;51.310;16.904;2022-11-25T06:16:12;330.42;;;58.55;;
58496;SDS011;44284;51.310;16.904;2022-11-25T06:18:39;250.43;;;54.03;;
58496;SDS011;44284;51.310;16.904;2022-11-25T06:21:05;233.93;;;55.42;;
58496;SDS011;44284;51.310;16.904;2022-11-25T06:23:32;327.95;;;59.67;;
58496;SDS011;44284;51.310;16.904;2022-11-25T06:26:05;229.57;;;54.28;;
58496;SDS011;44284;51.310;16.904;2022-11-25T06:28:32;318.63;;;61.03;;
58496;SDS011;44284;51.310;16.904;2022-11-25T06:31:08;314.67;;;58.33;;
58496;SDS011;44284;51.310;16.904;2022-11-25T06:33:34;263.23;;;56.30;;
58496;SDS011;44284;51.310;16.904;2022-11-25T06:36:04;275.38;;;61.28;;
58496;SDS011;44284;51.310;16.904;2022-11-25T06:38:30;250.18;;;58.03;;
58496;SDS011;44284;51.310;16.904;2022-11-25T06:41:00;365.98;;;65.03;;
58496;SDS011;44284;51.310;16.904;2022-11-25T06:43:26;319.80;;;60.40;;
58496;SDS011;44284;51.310;16.904;2022-11-25T06:45:52;293.33;;;59.85;;
58496;SDS011;44284;51.310;16.904;2022-11-25T06:48:18;337.95;;;58.85;;
58496;SDS011;44284;51.310;16.904;2022-11-25T06:50:44;313.55;;;61.28;;
58496;SDS011;44284;51.310;16.904;2022-11-25T06:53:10;308.55;;;57.40;;
58496;SDS011;44284;51.310;16.904;2022-11-25T06:55:36;297.88;;;59.85;;
58496;SDS011;44284;51.310;16.904;2022-11-25T06:58:03;347.00;;;60.25;;
58496;SDS011;44284;51.310;16.904;2022-11-25T07:00:29;317.30;;;59.50;;
58496;SDS011;44284;51.310;16.904;2022-11-25T07:02:55;222.95;;;55.67;;
58496;SDS011;44284;51.310;16.904;2022-11-25T07:05:21;198.77;;;53.30;;
58496;SDS011;44284;51.310;16.904;2022-11-25T07:07:47;332.77;;;59.88;;
58496;SDS011;44284;51.310;16.904;2022-11-25T07:10:13;334.80;;;63.88;;
58496;SDS011;44284;51.310;16.904;2022-11-25T07:12:39;350.33;;;60.70;;
58496;SDS011;44284;51.310;16.904;2022-11-25T07:15:05;316.17;;;58.08;;
58496;SDS011;44284;51.310;16.904;2022-11-25T07:17:31;283.25;;;54.90;;
58496;SDS011;44284;51.310;16.904;2022-11-25T07:19:57;238.30;;;57.35;;
58496;SDS011;44284;51.310;16.904;2022-11-25T07:22:23;338.17;;;73.63;;
58496;SDS011;44284;51.310;16.904;2022-11-25T07:24:49;306.92;;;68.82;;
58496;SDS011;44284;51.310;16.904;2022-11-25T07:27:15;370.40;;;64.25;;
58496;SDS011;44284;51.310;16.904;2022-11-25T07:29:41;278.20;;;68.13;;
58496;SDS011;44284;51.310;16.904;2022-11-25T07:32:07;377.88;;;75.47;;
58496;SDS011;44284;51.310;16.904;2022-11-25T07:34:33;395.98;;;83.53;;
58496;SDS011;44284;51.310;16.904;2022-11-25T07:36:59;271.08;;;65.40;;
58496;SDS011;44284;51.310;16.904;2022-11-25T07:39:25;389.15;;;68.70;;
58496;SDS011;44284;51.310;16.904;2022-11-25T07:41:52;308.65;;;57.63;;
58496;SDS011;44284;51.310;16.904;2022-11-25T07:44:19;233.00;;;53.40;;
58496;SDS011;44284;51.310;16.904;2022-11-25T07:46:46;229.68;;;54.22;;
58496;SDS011;44284;51.310;16.904;2022-11-25T07:49:17;301.90;;;60.65;;
58496;SDS011;44284;51.310;16.904;2022-11-25T07:51:56;275.25;;;59.40;;
58496;SDS011;44284;51.310;16.904;2022-11-25T07:54:26;251.60;;;58.33;;
58496;SDS011;44284;51.310;16.904;2022-11-25T07:56:53;306.80;;;65.30;;
58496;SDS011;44284;51.310;16.904;2022-11-25T07:59:20;288.60;;;65.72;;
58496;SDS011;44284;51.310;16.904;2022-11-25T08:01:50;233.90;;;60.40;;
58496;SDS011;44284;51.310;16.904;2022-11-25T08:04:17;230.50;;;58.83;;
58496;SDS011;44284;51.310;16.904;2022-11-25T08:06:44;255.00;;;58.42;;
58496;SDS011;44284;51.310;16.904;2022-11-25T08:09:11;302.63;;;63.08;;
58496;SDS011;44284;51.310;16.904;2022-11-25T08:11:38;192.95;;;55.65;;
58496;SDS011;44284;51.310;16.904;2022-11-25T08:14:04;253.00;;;57.78;;
58496;SDS011;44284;51.310;16.904;2022-11-25T08:16:30;247.05;;;58.67;;
58496;SDS011;44284;51.310;16.904;2022-11-25T08:19:00;213.88;;;54.28;;
58496;SDS011;44284;51.310;16.904;2022-11-25T08:21:26;225.48;;;55.58;;
58496;SDS011;44284;51.310;16.904;2022-11-25T08:23:53;215.02;;;57.03;;
58496;SDS011;44284;51.310;16.904;2022-11-25T08:28:45;235.65;;;53.90;;
58496;SDS011;44284;51.310;16.904;2022-11-25T08:31:12;248.68;;;56.53;;
58496;SDS011;44284;51.310;16.904;2022-11-25T08:33:39;269.77;;;57.30;;
58496;SDS011;44284;51.310;16.904;2022-11-25T08:36:05;321.20;;;63.75;;
58496;SDS011;44284;51.310;16.904;2022-11-25T08:38:32;232.27;;;60.92;;
58496;SDS011;44284;51.310;16.904;2022-11-25T08:40:58;247.57;;;62.60;;
58496;SDS011;44284;51.310;16.904;2022-11-25T08:43:24;268.80;;;64.32;;
58496;SDS011;44284;51.310;16.904;2022-11-25T08:45:50;315.25;;;72.10;;
58496;SDS011;44284;51.310;16.904;2022-11-25T08:48:17;251.75;;;67.10;;
58496;SDS011;44284;51.310;16.904;2022-11-25T08:50:46;215.57;;;60.45;;
58496;SDS011;44284;51.310;16.904;2022-11-25T08:53:13;236.40;;;63.85;;
58496;SDS011;44284;51.310;16.904;2022-11-25T08:55:39;252.15;;;61.30;;
58496;SDS011;44284;51.310;16.904;2022-11-25T08:58:05;264.45;;;66.70;;
58496;SDS011;44284;51.310;16.904;2022-11-25T09:00:36;220.48;;;61.25;;
58496;SDS011;44284;51.310;16.904;2022-11-25T09:03:02;274.30;;;69.10;;
58496;SDS011;44284;51.310;16.904;2022-11-25T09:05:28;261.77;;;66.90;;
58496;SDS011;44284;51.310;16.904;2022-11-25T09:08:00;212.75;;;56.13;;
58496;SDS011;44284;51.310;16.904;2022-11-25T09:10:26;258.10;;;66.70;;
58496;SDS011;44284;51.310;16.904;2022-11-25T09:12:52;195.70;;;57.78;;
58496;SDS011;44284;51.310;16.904;2022-11-25T09:15:18;171.60;;;54.80;;
58496;SDS011;44284;51.310;16.904;2022-11-25T09:17:44;185.57;;;50.53;;
58496;SDS011;44284;51.310;16.904;2022-11-25T09:20:10;160.07;;;51.00;;
58496;SDS011;44284;51.310;16.904;2022-11-25T09:22:36;186.10;;;50.15;;
58496;SDS011;44284;51.310;16.904;2022-11-25T09:25:02;184.60;;;48.22;;
58496;SDS011;44284;51.310;16.904;2022-11-25T09:27:29;156.30;;;45.47;;
58496;SDS011;44284;51.310;16.904;2022-11-25T09:29:55;141.55;;;44.63;;
58496;SDS011;44284;51.310;16.904;2022-11-25T09:32:21;148.13;;;45.10;;
58496;SDS011;44284;51.310;16.904;2022-11-25T09:34:47;134.32;;;44.42;;
58496;SDS011;44284;51.310;16.904;2022-11-25T09:37:13;152.02;;;45.55;;
58496;SDS011;44284;51.310;16.904;2022-11-25T09:39:39;161.50;;;48.60;;
58496;SDS011;44284;51.310;16.904;2022-11-25T09:45:16;122.57;;;40.70;;
58496;SDS011;44284;51.310;16.904;2022-11-25T09:48:19;105.97;;;39.85;;
58496;SDS011;44284;51.310;16.904;2022-11-25T09:56:01;122.55;;;39.40;;
58496;SDS011;44284;51.310;16.904;2022-11-25T10:00:56;102.47;;;36.67;;
58496;SDS011;44284;51.310;16.904;2022-11-25T10:08:24;92.90;;;34.67;;
58496;SDS011;44284;51.310;16.904;2022-11-25T10:11:54;98.63;;;33.67;;
58496;SDS011;44284;51.310;16.904;2022-11-25T10:16:37;78.63;;;32.55;;
58496;SDS011;44284;51.310;16.904;2022-11-25T10:19:12;99.88;;;35.65;;
58496;SDS011;44284;51.310;16.904;2022-11-25T10:21:41;85.70;;;32.97;;
58496;SDS011;44284;51.310;16.904;2022-11-25T10:24:11;74.38;;;29.08;;
58496;SDS011;44284;51.310;16.904;2022-11-25T10:26:40;92.47;;;29.52;;
58496;SDS011;44284;51.310;16.904;2022-11-25T10:29:16;85.00;;;33.15;;
58496;SDS011;44284;51.310;16.904;2022-11-25T10:31:44;87.93;;;34.42;;
58496;SDS011;44284;51.310;16.904;2022-11-25T10:34:34;86.50;;;34.28;;
58496;SDS011;44284;51.310;16.904;2022-11-25T10:37:02;80.30;;;32.55;;
58496;SDS011;44284;51.310;16.904;2022-11-25T10:39:30;87.32;;;35.53;;
58496;SDS011;44284;51.310;16.904;2022-11-25T10:41:59;100.80;;;39.13;;
58496;SDS011;44284;51.310;16.904;2022-11-25T10:44:28;96.97;;;37.30;;
58496;SDS011;44284;51.310;16.904;2022-11-25T10:52:25;110.25;;;43.10;;
58496;SDS011;44284;51.310;16.904;2022-11-25T10:54:56;97.57;;;40.22;;
58496;SDS011;44284;51.310;16.904;2022-11-25T10:57:25;123.78;;;44.50;;
58496;SDS011;44284;51.310;16.904;2022-11-25T10:59:55;105.88;;;41.95;;
58496;SDS011;44284;51.310;16.904;2022-11-25T11:07:17;93.22;;;35.15;;
58496;SDS011;44284;51.310;16.904;2022-11-25T11:09:43;100.57;;;37.03;;
58496;SDS011;44284;51.310;16.904;2022-11-25T11:12:26;85.78;;;35.20;;
58496;SDS011;44284;51.310;16.904;2022-11-25T11:14:53;80.57;;;34.17;;
58496;SDS011;44284;51.310;16.904;2022-11-25T11:17:38;78.40;;;31.13;;
58496;SDS011;44284;51.310;16.904;2022-11-25T11:22:34;85.00;;;39.28;;
58496;SDS011;44284;51.310;16.904;2022-11-25T11:25:08;85.88;;;37.03;;
58496;SDS011;44284;51.310;16.904;2022-11-25T11:27:41;86.15;;;36.55;;
58496;SDS011;44284;51.310;16.904;2022-11-25T11:32:36;76.85;;;30.83;;
58496;SDS011;44284;51.310;16.904;2022-11-25T11:35:13;86.88;;;38.53;;
58496;SDS011;44284;51.310;16.904;2022-11-25T11:37:46;72.50;;;29.88;;
58496;SDS011;44284;51.310;16.904;2022-11-25T11:48:43;96.65;;;48.85;;
58496;SDS011;44284;51.310;16.904;2022-11-25T11:51:14;125.25;;;64.40;;
58496;SDS011;44284;51.310;16.904;2022-11-25T11:53:59;122.97;;;53.22;;
58496;SDS011;44284;51.310;16.904;2022-11-25T12:04:18;79.57;;;35.85;;
58496;SDS011;44284;51.310;16.904;2022-11-25T12:06:55;67.00;;;33.40;;
58496;SDS011;44284;51.310;16.904;2022-11-25T12:09:23;67.63;;;33.85;;
58496;SDS011;44284;51.310;16.904;2022-11-25T12:11:53;72.28;;;35.22;;
58496;SDS011;44284;51.310;16.904;2022-11-25T12:14:33;77.38;;;36.67;;
58496;SDS011;44284;51.310;16.904;2022-11-25T12:17:00;76.43;;;36.00;;
58496;SDS011;44284;51.310;16.904;2022-11-25T12:22:29;62.77;;;33.80;;
58496;SDS011;44284;51.310;16.904;2022-11-25T12:27:26;59.97;;;29.38;;
58496;SDS011;44284;51.310;16.904;2022-11-25T12:30:04;60.28;;;28.45;;
58496;SDS011;44284;51.310;16.904;2022-11-25T12:35:19;56.45;;;29.45;;
58496;SDS011;44284;51.310;16.904;2022-11-25T12:40:21;59.00;;;30.67;;
58496;SDS011;44284;51.310;16.904;2022-11-25T12:42:51;53.25;;;29.05;;
58496;SDS011;44284;51.310;16.904;2022-11-25T12:45:21;41.00;;;22.70;;
58496;SDS011;44284;51.310;16.904;2022-11-25T12:47:48;50.05;;;24.42;;
58496;SDS011;44284;51.310;16.904;2022-11-25T12:50:15;42.72;;;23.17;;
58496;SDS011;44284;51.310;16.904;2022-11-25T12:52:50;46.67;;;25.80;;
58496;SDS011;44284;51.310;16.904;2022-11-25T12:55:22;41.85;;;20.92;;
58496;SDS011;44284;51.310;16.904;2022-11-25T13:11:10;49.70;;;24.35;;
58496;SDS011;44284;51.310;16.904;2022-11-25T13:15:41;44.13;;;24.38;;
58496;SDS011;44284;51.310;16.904;2022-11-25T13:18:10;46.25;;;23.50;;
58496;SDS011;44284;51.310;16.904;2022-11-25T13:20:39;43.25;;;23.65;;
58496;SDS011;44284;51.310;16.904;2022-11-25T13:25:37;41.95;;;23.67;;
58496;SDS011;44284;51.310;16.904;2022-11-25T13:28:05;48.45;;;25.85;;
58496;SDS011;44284;51.310;16.904;2022-11-25T13:30:51;42.63;;;23.17;;
58496;SDS011;44284;51.310;16.904;2022-11-25T13:46:28;53.33;;;29.40;;
58496;SDS011;44284;51.310;16.904;2022-11-25T13:48:59;59.22;;;32.60;;
58496;SDS011;44284;51.310;16.904;2022-11-25T13:51:25;51.28;;;28.35;;
58496;SDS011;44284;51.310;16.904;2022-11-25T13:53:57;49.60;;;26.83;;
58496;SDS011;44284;51.310;16.904;2022-11-25T14:01:39;53.70;;;29.20;;
58496;SDS011;44284;51.310;16.904;2022-11-25T14:04:09;57.83;;;33.30;;
58496;SDS011;44284;51.310;16.904;2022-11-25T14:24:59;85.57;;;48.80;;
58496;SDS011;44284;51.310;16.904;2022-11-25T14:27:30;78.65;;;43.38;;
58496;SDS011;44284;51.310;16.904;2022-11-25T14:30:07;84.38;;;46.45;;
58496;SDS011;44284;51.310;16.904;2022-11-25T14:32:37;94.60;;;48.53;;
58496;SDS011;44284;51.310;16.904;2022-11-25T14:35:07;92.43;;;49.95;;
58496;SDS011;44284;51.310;16.904;2022-11-25T14:38:17;96.55;;;52.88;;
58496;SDS011;44284;51.310;16.904;2022-11-25T14:40:25;102.03;;;57.22;;
58496;SDS011;44284;51.310;16.904;2022-11-25T14:42:57;108.18;;;62.63;;
58496;SDS011;44284;51.310;16.904;2022-11-25T14:45:25;107.50;;;63.85;;
58496;SDS011;44284;51.310;16.904;2022-11-25T14:47:51;189.02;;;103.95;;
58496;SDS011;44284;51.310;16.904;2022-11-25T14:50:17;196.80;;;103.75;;
58496;SDS011;44284;51.310;16.904;2022-11-25T14:52:43;152.40;;;83.68;;
58496;SDS011;44284;51.310;16.904;2022-11-25T14:55:12;101.80;;;57.88;;
58496;SDS011;44284;51.310;16.904;2022-11-25T14:57:39;104.20;;;57.28;;
58496;SDS011;44284;51.310;16.904;2022-11-25T15:00:09;102.07;;;59.13;;
58496;SDS011;44284;51.310;16.904;2022-11-25T15:02:38;89.85;;;52.67;;
58496;SDS011;44284;51.310;16.904;2022-11-25T15:07:41;98.60;;;53.47;;
58496;SDS011;44284;51.310;16.904;2022-11-25T15:10:29;90.13;;;52.70;;
58496;SDS011;44284;51.310;16.904;2022-11-25T15:12:53;86.55;;;55.28;;
58496;SDS011;44284;51.310;16.904;2022-11-25T15:15:19;95.00;;;53.70;;
58496;SDS011;44284;51.310;16.904;2022-11-25T15:17:45;92.65;;;52.67;;
58496;SDS011;44284;51.310;16.904;2022-11-25T15:20:12;87.85;;;52.85;;
58496;SDS011;44284;51.310;16.904;2022-11-25T15:22:44;108.53;;;60.40;;
58496;SDS011;44284;51.310;16.904;2022-11-25T15:25:12;116.78;;;62.15;;
58496;SDS011;44284;51.310;16.904;2022-11-25T15:27:49;100.32;;;56.67;;
58496;SDS011;44284;51.310;16.904;2022-11-25T15:30:26;126.45;;;64.95;;
58496;SDS011;44284;51.310;16.904;2022-11-25T15:32:54;112.55;;;57.90;;
58496;SDS011;44284;51.310;16.904;2022-11-25T15:35:22;123.60;;;60.83;;
58496;SDS011;44284;51.310;16.904;2022-11-25T15:37:48;120.55;;;59.92;;
58496;SDS011;44284;51.310;16.904;2022-11-25T15:40:34;106.47;;;56.90;;
58496;SDS011;44284;51.310;16.904;2022-11-25T15:43:01;96.47;;;53.70;;
58496;SDS011;44284;51.310;16.904;2022-11-25T15:45:29;86.40;;;51.20;;
58496;SDS011;44284;51.310;16.904;2022-11-25T15:47:57;98.97;;;55.95;;
58496;SDS011;44284;51.310;16.904;2022-11-25T15:50:24;109.88;;;59.78;;
58496;SDS011;44284;51.310;16.904;2022-11-25T15:52:52;122.55;;;65.07;;
58496;SDS011;44284;51.310;16.904;2022-11-25T15:57:59;125.82;;;68.00;;
58496;SDS011;44284;51.310;16.904;2022-11-25T16:00:27;140.98;;;82.40;;
58496;SDS011;44284;51.310;16.904;2022-11-25T16:02:53;149.82;;;85.65;;
58496;SDS011;44284;51.310;16.904;2022-11-25T16:05:24;149.73;;;89.18;;
58496;SDS011;44284;51.310;16.904;2022-11-25T16:10:21;161.63;;;98.45;;
58496;SDS011;44284;51.310;16.904;2022-11-25T16:18:14;164.23;;;94.88;;
58496;SDS011;44284;51.310;16.904;2022-11-25T16:20:50;204.57;;;113.82;;
58496;SDS011;44284;51.310;16.904;2022-11-25T16:23:18;195.88;;;103.32;;
58496;SDS011;44284;51.310;16.904;2022-11-25T16:25:54;229.23;;;115.32;;
58496;SDS011;44284;51.310;16.904;2022-11-25T16:28:22;210.82;;;108.60;;